キャンベラ の空港の天気 - METARとTAF

キャンベラ国際空港 ( YSCB / CBR ) - オーストラリア オーストラリア首都特別地域キャンベラ
飛行場実況気象(Metar)
観測時間08/18 23:00 AEST (08/18 13:00 UTC)
風向・風速北北西 5m/s
視程10km以上
天気現象
なし
気温10℃
湿度82%
気圧1012hPa
METARYSCB 181300Z AUTO 33009KT 9999 // NCD 10/07 Q1012
過去の天気等 Google飛行場航空写真 Wunderground天気予報

過去48時間のMETAR

飛行場予報(TAF)
発表時間: 8/18 21:19 AEST (8/18 11:19 UTC)
予報対象時間: 18日22時 AEST ~ 19日22時 AEST
風向・風速北西 6m/s
視程10km以上
少しの雲 雲底高度 610m
19日2時 AEST から
風向・風速北西 7m/s
視程10km以上
天気現象弱い雨
全天の4割程度の雲 雲底高度 300m
全天の4割程度の雲 雲底高度 910m
19日12時 AEST から
風向・風速南 5m/s
視程10km以上
天気現象弱いしゅう雨
全天の4割程度の雲 雲底高度 1220m
19日17時 AEST から
風向・風速北西 3m/s
視程10km以上
天気現象運行に影響にある天気現象が終了
全天の4割程度の雲 雲底高度 1220m
19日4時 AEST ~ 19日12時 AEST に一時的に
視程3000m
天気現象
全天の8割程度の雲 雲底高度 300m
19日12時 AEST ~ 19日16時 AEST に一時的に
視程6000m
天気現象しゅう雨
全天の4割程度の雲 雲底高度 460m
TAF AMD YSCB 181119Z 1812/1912 32012KT 9999 FEW020
FM181600 31013KT 9999 -RA SCT010 SCT030
FM190200 17010KT 9999 -SHRA SCT040
FM190700 32006KT 9999 NSW SCT040
TEMPO 1818/1902 3000 RA BKN010
TEMPO 1902/1906 6000 SHRA SCT015